YEB weather

Bar River Airport
Bar River, Ontario, Canada

Public forecast

Using degrees Celsius for public forecast. Weather courtesy of forecast.io.

Closest aviation weather report (METAR) to Bar River Airport

Closest report is Sault Ste Marie Municipal Sanderson Field, 12.0 nm (22.2 km) WNW. Retrieved 2020/06/04 11:55 UTC (7 minutes ago):

KANJ 041155Z AUTO 00000KT 7SM CLR 10/09 A2979 RMK AO2 SLP085 T01000089 10111 20072 53002

Closest aviation forecast (TAF) to Bar River Airport

Closest forecast is Sault Ste Marie Airport, 17.7 nm (32.8 km) WNW. Retrieved 2020/06/04 08:39 UTC (3 hours ago):

TAF CYAM 040738Z 0408/0420 29006KT 1/2SM FG OVC006 TEMPO 0408/0413 6SM BR SCT006 FM041300 31005KT P6SM FEW003 FM041900 VRB03KT P6SM FEW100 RMK NXT FCST BY 041400Z